Time;durP1;ratioP1;P1;durP2;ratioP2;P2;SDS_P1;SDS_P2;PMS_P1;PMS_P2;Temp;Humidity;BMP_temperature;BMP_pressure;BME280_temperature;BME280_humidity;BME280_pressure;Samples;Min_cycle;Max_cycle;Signal;HPM_P1;HPM_P2
2022/12/23 00:00:22;;;;;;;11.83;6.93;;;;;;;;;;5026257;28;20213;-29
2022/12/23 00:02:49;;;;;;;11.30;6.53;;;;;;;;;;5023823;28;20427;-29
2022/12/23 00:05:16;;;;;;;15.00;6.70;;;;;;;;;;5029123;28;20206;-27
2022/12/23 00:07:44;;;;;;;12.17;7.13;;;;;;;;;;5022902;28;20223;-27
2022/12/23 00:10:13;;;;;;;10.57;5.70;;;;;;;;;;5023227;28;20257;-29
2022/12/23 00:15:24;;;;;;;10.60;4.97;;;;;;;;;;5027018;28;20205;-28
2022/12/23 00:17:52;;;;;;;9.30;3.40;;;;;;;;;;5028413;28;20214;-26
2022/12/23 00:20:19;;;;;;;5.73;3.80;;;;;;;;;;5027874;28;20691;-29
2022/12/23 00:23:04;;;;;;;6.13;2.93;;;;;;;;;;5019891;28;20230;-26
2022/12/23 00:25:43;;;;;;;6.47;2.13;;;;;;;;;;5027910;28;20198;-28
2022/12/23 00:28:12;;;;;;;1.80;1.13;;;;;;;;;;5017347;28;20210;-28
2022/12/23 00:30:39;;;;;;;1.33;1.20;;;;;;;;;;5027403;28;20687;-27
2022/12/23 00:33:06;;;;;;;0.60;0.60;;;;;;;;;;5023378;28;20649;-27
2022/12/23 00:35:33;;;;;;;3.00;0.83;;;;;;;;;;5025670;28;20290;-28
2022/12/23 00:38:00;;;;;;;0.47;0.47;;;;;;;;;;5017563;28;20550;-28
2022/12/23 00:43:13;;;;;;;1.27;0.53;;;;;;;;;;5019718;28;20206;-29
2022/12/23 00:45:40;;;;;;;2.47;0.33;;;;;;;;;;5027363;28;20213;-29
2022/12/23 00:50:53;;;;;;;0.50;0.30;;;;;;;;;;5017528;28;20218;-28
2022/12/23 00:53:20;;;;;;;0.63;0.43;;;;;;;;;;5024867;28;20207;-28
2022/12/23 00:55:47;;;;;;;1.33;0.40;;;;;;;;;;5028529;28;20661;-29
2022/12/23 00:58:16;;;;;;;0.93;0.37;;;;;;;;;;5023407;28;20567;-29
2022/12/23 01:06:13;;;;;;;0.87;0.30;;;;;;;;;;5020636;28;20206;-27
2022/12/23 01:08:40;;;;;;;0.10;0.10;;;;;;;;;;5024704;28;20207;-29
2022/12/23 01:11:09;;;;;;;0.40;0.30;;;;;;;;;;5026218;28;20218;-27
2022/12/23 01:13:37;;;;;;;0.23;0.23;;;;;;;;;;5026388;28;20210;-29
2022/12/23 01:16:09;;;;;;;0.30;0.30;;;;;;;;;;5027470;28;20207;-29
2022/12/23 01:18:37;;;;;;;0.30;0.30;;;;;;;;;;5026676;28;20203;-29
2022/12/23 01:21:04;;;;;;;1.03;0.20;;;;;;;;;;5019838;28;20227;-29
2022/12/23 01:23:31;;;;;;;1.93;0.57;;;;;;;;;;5027198;28;20412;-28
2022/12/23 01:25:59;;;;;;;0.53;0.20;;;;;;;;;;5027652;28;20221;-26
2022/12/23 01:28:26;;;;;;;0.20;0.20;;;;;;;;;;5018246;28;20210;-32
2022/12/23 01:30:54;;;;;;;1.43;0.30;;;;;;;;;;5026458;28;20223;-28
2022/12/23 01:33:21;;;;;;;0.33;0.20;;;;;;;;;;5017695;28;20681;-28
2022/12/23 01:35:49;;;;;;;0.47;0.20;;;;;;;;;;5016770;28;20199;-29
2022/12/23 01:38:16;;;;;;;0.50;0.30;;;;;;;;;;5027796;28;20203;-27
2022/12/23 01:40:44;;;;;;;0.77;0.20;;;;;;;;;;5027030;28;20227;-29
2022/12/23 01:43:14;;;;;;;0.27;0.20;;;;;;;;;;5018600;28;20223;-32
2022/12/23 01:45:41;;;;;;;0.50;0.20;;;;;;;;;;5027505;28;21025;-28
2022/12/23 01:48:11;;;;;;;0.73;0.20;;;;;;;;;;5026951;28;20203;-29
2022/12/23 01:50:39;;;;;;;1.03;0.43;;;;;;;;;;5006988;28;20932;-27
2022/12/23 01:53:08;;;;;;;0.20;0.20;;;;;;;;;;5010313;28;20212;-27
2022/12/23 01:55:37;;;;;;;0.33;0.30;;;;;;;;;;5025978;28;20207;-27
2022/12/23 01:58:06;;;;;;;0.60;0.20;;;;;;;;;;5018747;28;20218;-27
2022/12/23 02:11:38;;;;;;;0.20;0.20;;;;;;;;;;5018212;28;20280;-30
2022/12/23 02:17:06;;;;;;;0.20;0.20;;;;;;;;;;5028878;28;20197;-29
2022/12/23 02:19:48;;;;;;;1.60;0.10;;;;;;;;;;5023999;28;20202;-30
2022/12/23 02:22:26;;;;;;;0.30;0.30;;;;;;;;;;5025925;28;20233;-27
2022/12/23 02:25:14;;;;;;;0.30;0.30;;;;;;;;;;5022309;28;20217;-30
2022/12/23 02:27:46;;;;;;;0.33;0.30;;;;;;;;;;5019837;28;20214;-26
2022/12/23 02:30:28;;;;;;;0.40;0.30;;;;;;;;;;5023875;28;20584;-28
2022/12/23 02:33:05;;;;;;;0.30;0.30;;;;;;;;;;5020547;28;20194;-28
2022/12/23 02:35:36;;;;;;;1.07;0.20;;;;;;;;;;5019526;28;20199;-29
2022/12/23 02:38:07;;;;;;;0.17;0.13;;;;;;;;;;5025620;28;20198;-28
2022/12/23 02:40:39;;;;;;;0.73;0.33;;;;;;;;;;5025347;28;20214;-28
2022/12/23 02:43:09;;;;;;;0.20;0.20;;;;;;;;;;5016219;28;20230;-29
2022/12/23 02:45:39;;;;;;;0.10;0.10;;;;;;;;;;5025718;28;20207;-29
2022/12/23 02:48:09;;;;;;;1.13;0.30;;;;;;;;;;5025902;28;20223;-30
2022/12/23 02:50:38;;;;;;;0.30;0.30;;;;;;;;;;5022642;28;20427;-29
2022/12/23 02:53:07;;;;;;;1.83;0.23;;;;;;;;;;5008972;28;20206;-29
2022/12/23 02:55:36;;;;;;;0.73;0.40;;;;;;;;;;5025234;28;20205;-29
2022/12/23 02:58:05;;;;;;;2.00;0.60;;;;;;;;;;5019181;28;20213;-30
2022/12/23 03:00:33;;;;;;;0.77;0.30;;;;;;;;;;5008401;28;20717;-30
2022/12/23 03:03:00;;;;;;;0.30;0.30;;;;;;;;;;5027209;28;20237;-29
2022/12/23 03:05:29;;;;;;;0.83;0.43;;;;;;;;;;5021584;28;20227;-27
2022/12/23 03:07:59;;;;;;;0.40;0.40;;;;;;;;;;5021968;28;20206;-30
2022/12/23 03:10:29;;;;;;;0.30;0.27;;;;;;;;;;5025148;28;20293;-30
2022/12/23 03:13:01;;;;;;;1.30;0.60;;;;;;;;;;5020431;28;20202;-30
2022/12/23 03:15:32;;;;;;;0.60;0.47;;;;;;;;;;5018828;28;20400;-28
2022/12/23 03:18:03;;;;;;;0.30;0.30;;;;;;;;;;5022489;28;20213;-30
2022/12/23 03:20:36;;;;;;;0.83;0.57;;;;;;;;;;5011986;28;20203;-27
2022/12/23 03:23:06;;;;;;;0.60;0.40;;;;;;;;;;5023162;28;20314;-29
2022/12/23 03:25:36;;;;;;;2.30;0.30;;;;;;;;;;5026775;28;20198;-28
2022/12/23 03:28:06;;;;;;;0.30;0.30;;;;;;;;;;5009023;28;20203;-30
2022/12/23 03:30:34;;;;;;;0.40;0.40;;;;;;;;;;5023356;28;20217;-29
2022/12/23 03:33:03;;;;;;;1.23;0.40;;;;;;;;;;5026470;28;20202;-29
2022/12/23 03:35:34;;;;;;;0.70;0.40;;;;;;;;;;5021131;28;20196;-27
2022/12/23 03:38:03;;;;;;;0.63;0.40;;;;;;;;;;5016510;28;20447;-30
2022/12/23 03:40:35;;;;;;;0.53;0.50;;;;;;;;;;5024274;28;20214;-30
2022/12/23 03:43:04;;;;;;;0.30;0.30;;;;;;;;;;5009835;28;20234;-31
2022/12/23 03:45:34;;;;;;;2.03;0.47;;;;;;;;;;5023896;28;20680;-30
2022/12/23 03:48:03;;;;;;;0.43;0.20;;;;;;;;;;5025992;28;20203;-27
2022/12/23 03:50:30;;;;;;;1.07;0.40;;;;;;;;;;5020796;28;20203;-26
2022/12/23 03:52:59;;;;;;;2.90;0.67;;;;;;;;;;5019410;28;20210;-28
2022/12/23 03:55:30;;;;;;;0.23;0.23;;;;;;;;;;5025988;28;20206;-27
2022/12/23 03:58:00;;;;;;;0.37;0.30;;;;;;;;;;5019015;28;20213;-29
2022/12/23 04:00:29;;;;;;;0.27;0.27;;;;;;;;;;5027390;28;20206;-27
2022/12/23 04:02:58;;;;;;;3.90;0.50;;;;;;;;;;5029706;28;20229;-30
2022/12/23 04:05:27;;;;;;;1.97;0.63;;;;;;;;;;5031158;28;20202;-30
2022/12/23 04:07:56;;;;;;;0.30;0.30;;;;;;;;;;5023655;28;20207;-30
2022/12/23 04:10:24;;;;;;;0.30;0.30;;;;;;;;;;5025348;28;20575;-27
2022/12/23 04:12:53;;;;;;;0.40;0.40;;;;;;;;;;5030873;28;20202;-28
2022/12/23 04:15:21;;;;;;;0.30;0.30;;;;;;;;;;5031118;28;20215;-30
2022/12/23 04:17:48;;;;;;;0.50;0.50;;;;;;;;;;5030216;28;20257;-29
2022/12/23 04:20:15;;;;;;;0.83;0.50;;;;;;;;;;5029491;28;20242;-28
2022/12/23 04:22:43;;;;;;;0.53;0.50;;;;;;;;;;5018554;28;20227;-30
2022/12/23 04:25:10;;;;;;;1.40;0.40;;;;;;;;;;5027626;28;20202;-29
2022/12/23 04:27:37;;;;;;;1.57;0.40;;;;;;;;;;5017049;28;20211;-29
2022/12/23 04:30:08;;;;;;;1.50;0.47;;;;;;;;;;5027763;28;20201;-27
2022/12/23 04:32:35;;;;;;;0.50;0.50;;;;;;;;;;5028415;28;20310;-30
2022/12/23 04:35:02;;;;;;;0.50;0.50;;;;;;;;;;5028856;28;20199;-31
2022/12/23 04:37:29;;;;;;;0.40;0.40;;;;;;;;;;5020823;28;20210;-28
2022/12/23 04:39:56;;;;;;;1.10;0.70;;;;;;;;;;5026097;28;20202;-27
2022/12/23 04:42:24;;;;;;;0.80;0.73;;;;;;;;;;5020297;28;20239;-29
2022/12/23 04:44:51;;;;;;;1.33;0.30;;;;;;;;;;5027601;28;20206;-28
2022/12/23 04:47:19;;;;;;;0.53;0.40;;;;;;;;;;5028226;28;20202;-30
2022/12/23 04:49:46;;;;;;;1.03;0.60;;;;;;;;;;5025518;28;20214;-27
2022/12/23 04:52:13;;;;;;;0.40;0.40;;;;;;;;;;5021472;28;20233;-28
2022/12/23 04:54:40;;;;;;;1.00;0.60;;;;;;;;;;5020018;28;20232;-30
2022/12/23 04:57:08;;;;;;;0.93;0.60;;;;;;;;;;5017748;28;20663;-27
2022/12/23 04:59:35;;;;;;;0.87;0.50;;;;;;;;;;5025730;28;20214;-28
2022/12/23 05:02:02;;;;;;;1.00;0.33;;;;;;;;;;5027871;28;20229;-28
2022/12/23 05:04:30;;;;;;;0.40;0.40;;;;;;;;;;5028066;28;20203;-29
2022/12/23 05:06:57;;;;;;;1.80;0.73;;;;;;;;;;5016990;28;20212;-27
2022/12/23 05:09:25;;;;;;;4.00;0.70;;;;;;;;;;5010411;28;20207;-27
2022/12/23 05:11:52;;;;;;;0.70;0.70;;;;;;;;;;5020799;28;20492;-27
2022/12/23 05:14:19;;;;;;;2.90;1.20;;;;;;;;;;5024296;28;20215;-28
2022/12/23 05:16:46;;;;;;;1.90;0.90;;;;;;;;;;5027290;28;20605;-29
2022/12/23 05:19:13;;;;;;;0.93;0.67;;;;;;;;;;5027255;28;20206;-28
2022/12/23 05:21:42;;;;;;;3.37;0.90;;;;;;;;;;5017724;28;20506;-30
2022/12/23 05:24:09;;;;;;;4.10;0.60;;;;;;;;;;5021986;28;20568;-28
2022/12/23 05:26:36;;;;;;;0.50;0.50;;;;;;;;;;5007654;28;20203;-29
2022/12/23 05:29:04;;;;;;;0.50;0.50;;;;;;;;;;5021367;28;20210;-28
2022/12/23 05:31:31;;;;;;;1.50;0.50;;;;;;;;;;5027364;28;20564;-29
2022/12/23 05:33:58;;;;;;;0.63;0.63;;;;;;;;;;5023162;28;20203;-30
2022/12/23 05:36:25;;;;;;;0.60;0.60;;;;;;;;;;5021377;28;20202;-28
2022/12/23 05:38:54;;;;;;;1.23;0.60;;;;;;;;;;5020154;28;20204;-30
2022/12/23 05:41:21;;;;;;;2.27;0.80;;;;;;;;;;5013452;28;20219;-29
2022/12/23 05:43:48;;;;;;;2.07;0.80;;;;;;;;;;5019903;28;20447;-31
2022/12/23 05:46:15;;;;;;;1.30;0.70;;;;;;;;;;5026901;28;20201;-28
2022/12/23 05:48:42;;;;;;;1.17;0.50;;;;;;;;;;5023108;28;20313;-27
2022/12/23 05:51:09;;;;;;;0.53;0.53;;;;;;;;;;5027319;28;20227;-30
2022/12/23 05:53:37;;;;;;;0.70;0.70;;;;;;;;;;5023617;28;20657;-29
2022/12/23 05:56:06;;;;;;;0.73;0.60;;;;;;;;;;5023124;28;20213;-27
2022/12/23 05:58:33;;;;;;;0.90;0.47;;;;;;;;;;5018487;28;20207;-29
2022/12/23 06:01:02;;;;;;;0.67;0.67;;;;;;;;;;5027040;28;20214;-30
2022/12/23 06:03:29;;;;;;;0.50;0.50;;;;;;;;;;5026746;28;20230;-27
2022/12/23 06:05:56;;;;;;;1.00;0.87;;;;;;;;;;5016801;28;20553;-30
2022/12/23 06:08:24;;;;;;;0.70;0.70;;;;;;;;;;5019393;28;20204;-29
2022/12/23 06:10:51;;;;;;;1.37;0.70;;;;;;;;;;5023868;28;20226;-28
2022/12/23 06:13:19;;;;;;;0.73;0.70;;;;;;;;;;5019041;28;20207;-29
2022/12/23 06:15:47;;;;;;;0.70;0.70;;;;;;;;;;5026635;28;20484;-29
2022/12/23 06:18:15;;;;;;;1.70;0.90;;;;;;;;;;5026088;28;20210;-30
2022/12/23 06:20:42;;;;;;;0.83;0.77;;;;;;;;;;5018865;28;20685;-28
2022/12/23 06:23:09;;;;;;;0.60;0.60;;;;;;;;;;5022059;28;20226;-26
2022/12/23 06:25:36;;;;;;;1.13;0.80;;;;;;;;;;5023671;28;20204;-28
2022/12/23 06:28:03;;;;;;;0.70;0.70;;;;;;;;;;5025092;28;20290;-28
2022/12/23 06:30:31;;;;;;;3.23;0.83;;;;;;;;;;5028025;28;20238;-29
2022/12/23 06:32:58;;;;;;;2.97;0.80;;;;;;;;;;5028730;28;20515;-29
2022/12/23 06:35:25;;;;;;;0.60;0.60;;;;;;;;;;5028876;28;20584;-27
2022/12/23 06:37:53;;;;;;;1.33;0.80;;;;;;;;;;5021729;28;20218;-27
2022/12/23 06:40:20;;;;;;;1.60;0.90;;;;;;;;;;5024654;28;20206;-29
2022/12/23 06:42:47;;;;;;;1.97;1.00;;;;;;;;;;5015810;28;20210;-30
2022/12/23 06:45:14;;;;;;;1.43;0.67;;;;;;;;;;5014562;28;20603;-30
2022/12/23 06:47:42;;;;;;;1.40;1.30;;;;;;;;;;5026473;28;20209;-30
2022/12/23 06:50:10;;;;;;;0.70;0.70;;;;;;;;;;5027399;28;20198;-30
2022/12/23 06:52:37;;;;;;;0.70;0.70;;;;;;;;;;5018573;28;20223;-28
2022/12/23 06:55:04;;;;;;;0.53;0.53;;;;;;;;;;5024681;28;20657;-28
2022/12/23 06:57:31;;;;;;;0.80;0.80;;;;;;;;;;5018615;28;20202;-29
2022/12/23 06:59:59;;;;;;;1.30;0.90;;;;;;;;;;5026076;28;20210;-29
2022/12/23 07:02:26;;;;;;;1.27;1.00;;;;;;;;;;5027019;28;20408;-29
2022/12/23 07:04:54;;;;;;;2.43;1.10;;;;;;;;;;5028307;28;20229;-29
2022/12/23 07:07:21;;;;;;;2.70;1.03;;;;;;;;;;5023564;28;20741;-27
2022/12/23 07:09:48;;;;;;;0.80;0.80;;;;;;;;;;5026485;28;20214;-28
2022/12/23 07:12:15;;;;;;;1.13;1.00;;;;;;;;;;5017802;28;20234;-30
2022/12/23 07:14:42;;;;;;;1.40;1.30;;;;;;;;;;5025580;28;20205;-28
2022/12/23 07:17:10;;;;;;;0.87;0.87;;;;;;;;;;5026553;28;20515;-28
2022/12/23 07:19:37;;;;;;;3.20;1.10;;;;;;;;;;5022055;28;20265;-30
2022/12/23 07:22:06;;;;;;;5.07;4.57;;;;;;;;;;5021328;28;20237;-29
2022/12/23 07:24:33;;;;;;;6.50;1.60;;;;;;;;;;5027775;28;20230;-28
2022/12/23 07:27:00;;;;;;;4.77;3.27;;;;;;;;;;5022427;28;20206;-29
2022/12/23 07:29:27;;;;;;;6.40;2.80;;;;;;;;;;5019486;28;20598;-27
2022/12/23 07:31:54;;;;;;;3.43;2.50;;;;;;;;;;5019447;28;20249;-28
2022/12/23 07:34:23;;;;;;;24.63;3.20;;;;;;;;;;5025115;28;20203;-28
2022/12/23 07:36:50;;;;;;;7.10;2.77;;;;;;;;;;5031234;28;20207;-28
2022/12/23 07:39:18;;;;;;;6.13;3.10;;;;;;;;;;5032637;28;20203;-26
2022/12/23 07:41:45;;;;;;;1.70;1.60;;;;;;;;;;5011634;28;20222;-27
2022/12/23 07:44:12;;;;;;;2.73;1.63;;;;;;;;;;5026095;28;20225;-28
2022/12/23 07:46:39;;;;;;;1.70;1.60;;;;;;;;;;5032013;28;20203;-29
2022/12/23 07:49:06;;;;;;;1.83;1.63;;;;;;;;;;5031656;28;20563;-29
2022/12/23 07:51:34;;;;;;;5.60;2.40;;;;;;;;;;5024400;28;20564;-28
2022/12/23 07:54:01;;;;;;;2.70;2.50;;;;;;;;;;5020939;28;20195;-28
2022/12/23 07:56:30;;;;;;;3.43;3.03;;;;;;;;;;5027333;28;20210;-28
2022/12/23 07:58:57;;;;;;;4.27;2.33;;;;;;;;;;5024972;28;20206;-29
2022/12/23 08:01:24;;;;;;;3.77;2.80;;;;;;;;;;5032042;28;20688;-28
2022/12/23 08:03:51;;;;;;;2.00;1.90;;;;;;;;;;5032275;28;20230;-26
2022/12/23 08:06:19;;;;;;;3.40;2.27;;;;;;;;;;5022353;28;20289;-29
2022/12/23 08:08:47;;;;;;;2.10;1.90;;;;;;;;;;5023783;28;20199;-27
2022/12/23 08:11:15;;;;;;;1.70;1.60;;;;;;;;;;5029197;28;20777;-29
2022/12/23 08:13:44;;;;;;;1.70;1.60;;;;;;;;;;5017378;28;20725;-27
2022/12/23 08:16:12;;;;;;;2.10;1.90;;;;;;;;;;5027164;28;20649;-28
2022/12/23 08:18:39;;;;;;;3.63;2.07;;;;;;;;;;5031169;28;20218;-28
2022/12/23 08:21:07;;;;;;;3.50;1.80;;;;;;;;;;5031290;28;20222;-30
2022/12/23 08:23:35;;;;;;;3.23;2.00;;;;;;;;;;5033228;28;20218;-25
2022/12/23 08:26:03;;;;;;;2.63;2.03;;;;;;;;;;5029437;28;20444;-29
2022/12/23 08:28:30;;;;;;;2.83;2.60;;;;;;;;;;5025189;28;20739;-27
2022/12/23 08:31:04;;;;;;;3.57;3.27;;;;;;;;;;5021340;28;20219;-28
2022/12/23 08:33:32;;;;;;;2.77;2.43;;;;;;;;;;5029297;28;20198;-27
2022/12/23 08:35:59;;;;;;;2.23;2.03;;;;;;;;;;5032399;28;20209;-27
2022/12/23 08:38:26;;;;;;;3.77;2.17;;;;;;;;;;5030441;28;20209;-27
2022/12/23 08:40:53;;;;;;;2.30;1.70;;;;;;;;;;5030006;28;20598;-26
2022/12/23 08:43:21;;;;;;;13.13;2.90;;;;;;;;;;5022381;28;20202;-27
2022/12/23 08:45:48;;;;;;;5.37;4.90;;;;;;;;;;5031370;28;20195;-29
2022/12/23 08:48:17;;;;;;;3.97;3.40;;;;;;;;;;5031466;28;20573;-27
2022/12/23 08:50:45;;;;;;;2.80;2.60;;;;;;;;;;5030742;28;20230;-28
2022/12/23 08:53:12;;;;;;;5.13;2.70;;;;;;;;;;5023422;28;20230;-28
2022/12/23 08:55:40;;;;;;;2.97;2.13;;;;;;;;;;5028358;28;20206;-30
2022/12/23 08:58:07;;;;;;;3.00;2.13;;;;;;;;;;5023041;28;20203;-30
2022/12/23 09:00:35;;;;;;;2.40;2.20;;;;;;;;;;5016846;28;20213;-27
2022/12/23 09:03:05;;;;;;;2.20;2.10;;;;;;;;;;5031162;28;20214;-29
2022/12/23 09:05:34;;;;;;;2.67;1.87;;;;;;;;;;5032155;28;20845;-27
2022/12/23 09:08:02;;;;;;;3.27;1.97;;;;;;;;;;5026886;28;20198;-26
2022/12/23 09:10:29;;;;;;;7.67;3.57;;;;;;;;;;5030218;28;20217;-27
2022/12/23 09:12:56;;;;;;;5.30;2.77;;;;;;;;;;5024271;28;20637;-27
2022/12/23 09:15:23;;;;;;;5.30;3.70;;;;;;;;;;5030961;28;20202;-29
2022/12/23 09:17:50;;;;;;;3.73;3.27;;;;;;;;;;5026585;28;20213;-26
2022/12/23 09:20:18;;;;;;;5.40;2.90;;;;;;;;;;5032375;28;20221;-29
2022/12/23 09:22:46;;;;;;;6.33;3.50;;;;;;;;;;5024879;28;20211;-27
2022/12/23 09:25:14;;;;;;;7.33;2.97;;;;;;;;;;5026716;28;20214;-28
2022/12/23 09:27:41;;;;;;;3.33;2.57;;;;;;;;;;5020832;28;20203;-30
2022/12/23 09:30:09;;;;;;;3.67;2.63;;;;;;;;;;5030237;28;20203;-30
2022/12/23 09:32:36;;;;;;;3.40;3.10;;;;;;;;;;5029835;28;20229;-28
2022/12/23 09:35:03;;;;;;;9.43;3.60;;;;;;;;;;5023110;28;20195;-29
2022/12/23 09:37:30;;;;;;;11.00;5.10;;;;;;;;;;5027252;28;20203;-29
2022/12/23 09:39:59;;;;;;;8.70;4.87;;;;;;;;;;5016721;28;20572;-26
2022/12/23 09:42:34;;;;;;;14.70;4.37;;;;;;;;;;5025995;28;20234;-27
2022/12/23 09:45:12;;;;;;;44.63;5.07;;;;;;;;;;5030162;28;20222;-30
2022/12/23 09:47:40;;;;;;;9.63;5.03;;;;;;;;;;5029943;28;20210;-26
2022/12/23 09:50:13;;;;;;;5.73;3.87;;;;;;;;;;5024999;28;20235;-26
2022/12/23 09:52:43;;;;;;;8.03;4.63;;;;;;;;;;5021597;28;20233;-28
2022/12/23 09:55:19;;;;;;;9.67;5.40;;;;;;;;;;5030294;28;20213;-29
2022/12/23 09:57:51;;;;;;;13.00;4.40;;;;;;;;;;5020118;28;20198;-27
2022/12/23 10:00:19;;;;;;;9.57;4.70;;;;;;;;;;5028932;28;20199;-27
2022/12/23 10:02:57;;;;;;;8.60;4.43;;;;;;;;;;5030805;28;20198;-28
2022/12/23 10:05:28;;;;;;;7.70;4.33;;;;;;;;;;5029731;28;20221;-27
2022/12/23 10:07:56;;;;;;;7.43;4.37;;;;;;;;;;5023971;28;20596;-28
2022/12/23 10:10:27;;;;;;;6.70;4.10;;;;;;;;;;5023978;28;20555;-28
2022/12/23 10:12:56;;;;;;;13.33;3.83;;;;;;;;;;5019473;28;20247;-29
2022/12/23 10:15:26;;;;;;;9.43;3.37;;;;;;;;;;5028583;28;20677;-25
2022/12/23 10:17:56;;;;;;;13.43;3.80;;;;;;;;;;5029993;28;20195;-27
2022/12/23 10:20:29;;;;;;;5.90;2.53;;;;;;;;;;5027029;28;20214;-28
2022/12/23 10:22:57;;;;;;;4.40;3.40;;;;;;;;;;5025324;28;20214;-29
2022/12/23 10:25:28;;;;;;;9.53;4.27;;;;;;;;;;5026631;28;20219;-28
2022/12/23 10:27:57;;;;;;;7.53;4.63;;;;;;;;;;5015699;28;20206;-29
2022/12/23 10:30:26;;;;;;;4.83;2.47;;;;;;;;;;5024608;28;20207;-28
2022/12/23 10:32:59;;;;;;;7.60;4.03;;;;;;;;;;5027638;28;20241;-27
2022/12/23 10:35:40;;;;;;;6.80;4.27;;;;;;;;;;5021286;28;20205;-26
2022/12/23 10:38:15;;;;;;;4.40;4.00;;;;;;;;;;5023333;28;20203;-26
2022/12/23 10:40:49;;;;;;;7.93;5.50;;;;;;;;;;5026029;28;20222;-31
2022/12/23 10:43:21;;;;;;;8.33;4.60;;;;;;;;;;5021641;28;20209;-27
2022/12/23 10:45:52;;;;;;;8.30;5.57;;;;;;;;;;5020828;28;20328;-29
2022/12/23 10:48:33;;;;;;;8.73;5.87;;;;;;;;;;5026514;28;20231;-28
2022/12/23 10:51:02;;;;;;;10.43;5.03;;;;;;;;;;5023192;28;20222;-29
2022/12/23 10:53:34;;;;;;;6.30;5.03;;;;;;;;;;5018529;28;20215;-28
2022/12/23 10:56:01;;;;;;;8.00;4.43;;;;;;;;;;5026196;28;20194;-26
2022/12/23 10:58:30;;;;;;;12.43;4.90;;;;;;;;;;5017150;28;20206;-29
2022/12/23 11:01:05;;;;;;;4.87;4.17;;;;;;;;;;5022850;28;20313;-28
2022/12/23 11:03:33;;;;;;;13.47;5.33;;;;;;;;;;5026155;28;20212;-27
2022/12/23 11:06:01;;;;;;;6.77;4.13;;;;;;;;;;5022934;28;20222;-28
2022/12/23 11:08:30;;;;;;;6.73;5.03;;;;;;;;;;5028762;28;20203;-29
2022/12/23 11:10:59;;;;;;;8.57;4.73;;;;;;;;;;5030845;28;20261;-27
2022/12/23 11:13:33;;;;;;;6.23;3.87;;;;;;;;;;5021084;28;20202;-28
2022/12/23 11:16:04;;;;;;;7.47;3.50;;;;;;;;;;5027694;28;20214;-28
2022/12/23 11:18:32;;;;;;;6.27;3.43;;;;;;;;;;5030503;28;20203;-28
2022/12/23 11:23:29;;;;;;;4.30;3.03;;;;;;;;;;5045076;28;20237;-29
2022/12/23 11:26:00;;;;;;;5.23;2.77;;;;;;;;;;5046493;28;20252;-27
2022/12/23 11:28:27;;;;;;;5.20;3.30;;;;;;;;;;5035053;28;20205;-28
2022/12/23 11:30:55;;;;;;;9.30;4.60;;;;;;;;;;5045413;28;20222;-28
2022/12/23 11:33:24;;;;;;;11.53;5.70;;;;;;;;;;5046571;28;20201;-29
2022/12/23 11:36:02;;;;;;;8.20;5.43;;;;;;;;;;5033580;28;20663;-29
2022/12/23 11:38:29;;;;;;;7.50;5.03;;;;;;;;;;5043591;28;20202;-28
2022/12/23 11:40:56;;;;;;;9.33;5.57;;;;;;;;;;5046376;28;20243;-31
2022/12/23 11:43:26;;;;;;;7.27;5.07;;;;;;;;;;5043180;28;20200;-27
2022/12/23 11:46:08;;;;;;;11.47;6.07;;;;;;;;;;5051905;28;20579;-28
2022/12/23 11:48:35;;;;;;;9.03;6.57;;;;;;;;;;5051401;28;20198;-30
2022/12/23 11:51:05;;;;;;;14.90;6.30;;;;;;;;;;5048294;28;20222;-29
2022/12/23 11:53:32;;;;;;;9.23;6.20;;;;;;;;;;5051577;28;20203;-28
2022/12/23 11:56:00;;;;;;;10.63;5.87;;;;;;;;;;5051670;28;20205;-29
2022/12/23 11:58:29;;;;;;;16.53;6.80;;;;;;;;;;5045974;28;20198;-30
2022/12/23 12:00:57;;;;;;;6.83;5.70;;;;;;;;;;5050426;28;20226;-29
2022/12/23 12:03:27;;;;;;;9.37;6.17;;;;;;;;;;5052434;28;20198;-27
2022/12/23 12:05:55;;;;;;;8.23;6.33;;;;;;;;;;5044667;28;20226;-27
2022/12/23 12:08:28;;;;;;;9.23;6.37;;;;;;;;;;5046097;28;20218;-27
2022/12/23 12:11:00;;;;;;;11.33;6.23;;;;;;;;;;5050393;28;20585;-30
2022/12/23 12:13:29;;;;;;;12.73;5.87;;;;;;;;;;5043209;28;20206;-30
2022/12/23 12:16:00;;;;;;;9.53;5.43;;;;;;;;;;5047546;28;20576;-25
2022/12/23 12:18:28;;;;;;;7.00;4.93;;;;;;;;;;5048461;28;20210;-30
2022/12/23 12:20:57;;;;;;;5.97;4.63;;;;;;;;;;5047783;28;20214;-32
2022/12/23 12:23:27;;;;;;;9.67;5.00;;;;;;;;;;5047109;28;20504;-28
2022/12/23 12:25:58;;;;;;;7.40;5.57;;;;;;;;;;5043819;28;20222;-28
2022/12/23 12:28:26;;;;;;;8.17;5.40;;;;;;;;;;5041688;28;20210;-28
2022/12/23 12:30:57;;;;;;;7.93;5.37;;;;;;;;;;5050745;28;20226;-28
2022/12/23 12:33:27;;;;;;;12.57;5.30;;;;;;;;;;5051713;28;20230;-28
2022/12/23 12:35:55;;;;;;;31.87;5.03;;;;;;;;;;5046297;28;20209;-28
2022/12/23 12:38:25;;;;;;;4.97;4.47;;;;;;;;;;5050097;28;20214;-28
2022/12/23 12:40:55;;;;;;;6.03;5.07;;;;;;;;;;5051450;28;20226;-28
2022/12/23 12:43:27;;;;;;;6.93;5.03;;;;;;;;;;5042356;28;20217;-29
2022/12/23 12:46:00;;;;;;;6.80;5.33;;;;;;;;;;5049816;28;20758;-30
2022/12/23 12:48:38;;;;;;;5.43;4.87;;;;;;;;;;5051968;28;20213;-26
2022/12/23 12:51:09;;;;;;;9.50;6.20;;;;;;;;;;5044827;28;20228;-27
2022/12/23 12:53:38;;;;;;;14.67;5.00;;;;;;;;;;5051227;28;20206;-29
2022/12/23 12:56:08;;;;;;;8.87;4.97;;;;;;;;;;5051716;28;20197;-30
2022/12/23 12:58:36;;;;;;;12.83;5.97;;;;;;;;;;5043666;28;20210;-29
2022/12/23 13:01:19;;;;;;;40.73;6.60;;;;;;;;;;5048210;28;20230;-26
2022/12/23 13:03:59;;;;;;;12.17;5.20;;;;;;;;;;5049034;28;20206;-30
2022/12/23 13:06:29;;;;;;;10.23;4.70;;;;;;;;;;5044899;28;20221;-28
2022/12/23 13:09:02;;;;;;;11.43;6.80;;;;;;;;;;5049394;28;20198;-30
2022/12/23 13:11:33;;;;;;;11.50;5.87;;;;;;;;;;5046612;28;20347;-28
2022/12/23 13:14:06;;;;;;;6.20;4.83;;;;;;;;;;5048226;28;20206;-28
2022/12/23 13:16:37;;;;;;;7.67;5.23;;;;;;;;;;5049823;28;20206;-28
2022/12/23 13:19:06;;;;;;;5.90;5.23;;;;;;;;;;5050243;28;20217;-27
2022/12/23 13:21:38;;;;;;;5.57;4.60;;;;;;;;;;5043046;28;20237;-28
2022/12/23 13:24:08;;;;;;;6.53;5.60;;;;;;;;;;5048392;28;20215;-28
2022/12/23 13:26:39;;;;;;;6.47;4.80;;;;;;;;;;5045393;28;20246;-29
2022/12/23 13:29:21;;;;;;;8.07;6.37;;;;;;;;;;5046718;28;20202;-29
2022/12/23 13:31:53;;;;;;;10.40;7.60;;;;;;;;;;5047588;28;20707;-27
2022/12/23 13:34:26;;;;;;;8.97;6.87;;;;;;;;;;5051354;28;20206;-29
2022/12/23 13:36:59;;;;;;;11.57;6.70;;;;;;;;;;5043722;28;20380;-27
2022/12/23 13:39:33;;;;;;;11.33;6.00;;;;;;;;;;5049613;28;20213;-26
2022/12/23 13:42:03;;;;;;;14.63;7.47;;;;;;;;;;5047993;28;20214;-28
2022/12/23 13:44:31;;;;;;;13.27;7.77;;;;;;;;;;5048865;28;20209;-27
2022/12/23 13:47:05;;;;;;;10.37;6.77;;;;;;;;;;5052444;28;20222;-30
2022/12/23 13:49:37;;;;;;;11.50;7.50;;;;;;;;;;5049087;28;20210;-30
2022/12/23 13:52:07;;;;;;;9.40;7.23;;;;;;;;;;5044843;28;20226;-28
2022/12/23 13:54:38;;;;;;;14.03;7.80;;;;;;;;;;5042448;28;20228;-26
2022/12/23 13:57:10;;;;;;;11.53;6.97;;;;;;;;;;5039395;28;20224;-27
2022/12/23 13:59:39;;;;;;;10.80;7.23;;;;;;;;;;5048763;28;20198;-30
2022/12/23 14:02:28;;;;;;;14.57;7.70;;;;;;;;;;5052123;28;20606;-26
2022/12/23 14:04:59;;;;;;;11.43;7.57;;;;;;;;;;5033736;28;20211;-29
2022/12/23 14:07:27;;;;;;;12.20;7.23;;;;;;;;;;5042395;28;20217;-28
2022/12/23 14:09:56;;;;;;;19.00;8.40;;;;;;;;;;5036694;28;20284;-27
2022/12/23 14:12:27;;;;;;;13.63;7.23;;;;;;;;;;5037226;28;20268;-27
2022/12/23 14:18:09;;;;;;;13.67;6.30;;;;;;;;;;5046850;28;20534;-26
2022/12/23 14:20:50;;;;;;;23.73;6.27;;;;;;;;;;5048007;28;20226;-28
2022/12/23 14:23:26;;;;;;;31.30;5.00;;;;;;;;;;5050185;28;20221;-26
2022/12/23 14:26:15;;;;;;;20.50;5.70;;;;;;;;;;5045231;28;20590;-27
2022/12/23 14:28:52;;;;;;;9.33;5.27;;;;;;;;;;5050177;28;20727;-27
2022/12/23 14:31:40;;;;;;;8.13;5.77;;;;;;;;;;5049067;28;20224;-29
2022/12/23 14:34:23;;;;;;;13.33;5.60;;;;;;;;;;5051121;28;20194;-26
2022/12/23 14:37:05;;;;;;;14.57;5.00;;;;;;;;;;5042458;28;20216;-30
2022/12/23 14:39:33;;;;;;;7.20;5.47;;;;;;;;;;5050124;28;20205;-27
2022/12/23 14:42:00;;;;;;;8.03;6.10;;;;;;;;;;5041176;28;20280;-28
2022/12/23 14:44:45;;;;;;;28.43;6.37;;;;;;;;;;5045610;28;20219;-29
2022/12/23 14:47:32;;;;;;;9.77;5.87;;;;;;;;;;5047662;28;20217;-26
2022/12/23 14:52:50;;;;;;;9.47;6.43;;;;;;;;;;5053480;28;20198;-26
2022/12/23 14:55:36;;;;;;;9.30;5.90;;;;;;;;;;5040709;28;20913;-27
2022/12/23 14:58:08;;;;;;;5.33;3.60;;;;;;;;;;5040852;28;20206;-27
2022/12/23 15:00:45;;;;;;;4.70;3.83;;;;;;;;;;5050698;28;20556;-28
2022/12/23 15:03:26;;;;;;;12.23;9.37;;;;;;;;;;5052153;28;20208;-28
2022/12/23 15:06:03;;;;;;;18.07;12.33;;;;;;;;;;5046055;28;20232;-27
2022/12/23 15:08:31;;;;;;;14.03;6.97;;;;;;;;;;5045065;28;20205;-28
2022/12/23 15:11:10;;;;;;;12.87;7.10;;;;;;;;;;5048765;28;20566;-29
2022/12/23 15:13:52;;;;;;;7.57;5.03;;;;;;;;;;5046984;28;20209;-30
2022/12/23 15:16:27;;;;;;;13.47;8.40;;;;;;;;;;5042606;28;20288;-27
2022/12/23 15:18:54;;;;;;;5.97;5.10;;;;;;;;;;5041341;28;20232;-26
2022/12/23 15:21:27;;;;;;;12.87;9.07;;;;;;;;;;5052306;28;20214;-30
2022/12/23 15:23:56;;;;;;;10.47;5.93;;;;;;;;;;5046791;28;20309;-28
2022/12/23 15:26:26;;;;;;;9.33;5.67;;;;;;;;;;5036344;28;20217;-29
2022/12/23 15:28:53;;;;;;;6.50;4.07;;;;;;;;;;5040859;28;20232;-29
2022/12/23 15:31:26;;;;;;;8.07;6.47;;;;;;;;;;5044118;28;20218;-29